Bw Cedar — 2GXK7 — position and weather

sailwx.info

Track history (hours):
 
Tides and Currents Weather Stations Pressure Air Temp Water Temp Dewpoint Dewpoint Depression Visibility Wind Speed Wind Dir Waves Ship Positions

Bw Cedar

Last reported at 2017-Oct-30 11:35 UTC. Time now 2017-Nov-20 02:18 UTC.
Position N 01°15' E 104°02'.
Warning: this ship's position is 20 days out of date.

Length 225 m; draft 11.7 m.

Type: Tanker. MMSI: 235101302.

Date/timePositionNaut miles runAvg speedWind from/ knotsBaromVisibWave heightAir tempDewpointWater temp
2017-Oct-30 11:35N 01°15' E 104°02'110.5
2017-Oct-30 11:29N 01°15' E 104°01'510.3
2017-Oct-30 11:00N 01°13' E 103°56'510.3
2017-Oct-30 10:30N 01°11' E 103°52'5 9.7
2017-Oct-30 10:00N 01°09' E 103°47'510.6
2017-Oct-30 09:30N 01°05' E 103°43'510.5
2017-Oct-30 09:00N 01°03' E 103°39'5 9.2
2017-Oct-30 08:30N 01°05' E 103°35'4 8.6
2017-Oct-30 08:00N 01°08' E 103°32'510.0
2017-Oct-30 07:30N 01°12' E 103°35'510.4
2017-Oct-30 06:59N 01°11' E 103°40'2 3.3
2017-Oct-30 06:30N 01°11' E 103°42'0 0.1
2017-Oct-30 05:59N 01°11' E 103°42'0 0.0
2017-Oct-30 05:26N 01°11' E 103°42'0 0.1
2017-Oct-30 04:56N 01°11' E 103°42'0 0.0
2017-Oct-30 04:29N 01°11' E 103°42'0 0.0
2017-Oct-30 03:56N 01°11' E 103°42'0 0.1
2017-Oct-30 03:23N 01°11' E 103°42'0 0.0
2017-Oct-30 02:53N 01°11' E 103°42'0 0.2
2017-Oct-30 02:29N 01°11' E 103°42'0 0.0
2017-Oct-30 01:59N 01°11' E 103°42'0 0.0
2017-Oct-30 01:29N 01°11' E 103°42'0 0.4
2017-Oct-30 00:56N 01°11' E 103°42'0 0.1
2017-Oct-30 00:26N 01°11' E 103°42'0 0.1
2017-Oct-29 23:56N 01°11' E 103°42'0 0.1
2017-Oct-29 23:29N 01°11' E 103°42'0 0.0
2017-Oct-29 22:59N 01°11' E 103°42'0 0.1
2017-Oct-29 22:29N 01°11' E 103°42'0 0.0
2017-Oct-29 21:59N 01°11' E 103°42'0 0.1
2017-Oct-29 21:26N 01°11' E 103°42'0 0.2
2017-Oct-29 20:59N 01°11' E 103°42'0 0.2
2017-Oct-29 20:29N 01°11' E 103°42'0 0.0
2017-Oct-29 19:56N 01°11' E 103°42'0 0.1
2017-Oct-29 19:29N 01°11' E 103°42'0 0.0
2017-Oct-29 18:38N 01°11' E 103°42'0 0.0
2017-Oct-29 18:29N 01°11' E 103°42'0 0.0
2017-Oct-29 17:56N 01°11' E 103°42'0 0.0
2017-Oct-29 17:29N 01°11' E 103°42'0 0.1
2017-Oct-29 16:59N 01°11' E 103°42'0 0.1
2017-Oct-29 16:23N 01°11' E 103°42'0 0.1
2017-Oct-29 15:59N 01°11' E 103°42'0 0.1
2017-Oct-29 15:29N 01°11' E 103°42'0 0.0
2017-Oct-29 14:56N 01°11' E 103°42'0 0.1
2017-Oct-29 14:29N 01°11' E 103°42'0 0.0
2017-Oct-29 13:56N 01°11' E 103°42'0 0.1
2017-Oct-29 13:29N 01°11' E 103°42'0 0.1
2017-Oct-29 12:53N 01°11' E 103°42'0 0.1
2017-Oct-29 12:23N 01°11' E 103°42'0 0.1
2017-Oct-29 12:00N 01°11' E 103°42'0 0.1
2017-Oct-29 11:28N 01°11' E 103°42'0 0.3
2017-Oct-29 10:58N 01°11' E 103°42'0 0.2
2017-Oct-29 10:30N 01°11' E 103°42'1 2.0
2017-Oct-29 10:00N 01°11' E 103°41'4 7.5
2017-Oct-29 09:30N 01°12' E 103°37'3 6.0
2017-Oct-29 09:00N 01°12' E 103°34'4 6.9
2017-Oct-29 08:30N 01°11' E 103°31'5 8.7
2017-Oct-29 07:59N 01°11' E 103°27'2 3.9
2017-Oct-29 07:30N 01°12' E 103°25'2 3.6
2017-Oct-29 06:59N 01°13' E 103°23'3 4.5
2017-Oct-29 06:23N 01°15' E 103°21'2 4.8
2017-Oct-29 05:55N 01°16' E 103°20'  
Track history (hours):
 
Tides and Currents Weather Stations Pressure Air Temp Water Temp Dewpoint Dewpoint Depression Visibility Wind Speed Wind Dir Waves Ship Positions

Bw Cedar

Last reported at 2017-Oct-30 11:35 UTC. Time now 2017-Nov-20 02:18 UTC.
Position N 01°15' E 104°02'.
Warning: this ship's position is 20 days out of date.

Length 225 m; draft 11.7 m.

Type: Tanker. MMSI: 235101302.

Date/timePositionNaut miles runAvg speedWind from/ knotsBaromVisibWave heightAir tempDewpointWater temp
2017-Oct-30 11:35N 01°15' E 104°02'110.5
2017-Oct-30 11:29N 01°15' E 104°01'510.3
2017-Oct-30 11:00N 01°13' E 103°56'510.3
2017-Oct-30 10:30N 01°11' E 103°52'5 9.7
2017-Oct-30 10:00N 01°09' E 103°47'510.6
2017-Oct-30 09:30N 01°05' E 103°43'510.5
2017-Oct-30 09:00N 01°03' E 103°39'5 9.2
2017-Oct-30 08:30N 01°05' E 103°35'4 8.6
2017-Oct-30 08:00N 01°08' E 103°32'510.0
2017-Oct-30 07:30N 01°12' E 103°35'510.4
2017-Oct-30 06:59N 01°11' E 103°40'2 3.3
2017-Oct-30 06:30N 01°11' E 103°42'0 0.1
2017-Oct-30 05:59N 01°11' E 103°42'0 0.0
2017-Oct-30 05:26N 01°11' E 103°42'0 0.1
2017-Oct-30 04:56N 01°11' E 103°42'0 0.0
2017-Oct-30 04:29N 01°11' E 103°42'0 0.0
2017-Oct-30 03:56N 01°11' E 103°42'0 0.1
2017-Oct-30 03:23N 01°11' E 103°42'0 0.0
2017-Oct-30 02:53N 01°11' E 103°42'0 0.2
2017-Oct-30 02:29N 01°11' E 103°42'0 0.0
2017-Oct-30 01:59N 01°11' E 103°42'0 0.0
2017-Oct-30 01:29N 01°11' E 103°42'0 0.4
2017-Oct-30 00:56N 01°11' E 103°42'0 0.1
2017-Oct-30 00:26N 01°11' E 103°42'0 0.1
2017-Oct-29 23:56N 01°11' E 103°42'0 0.1
2017-Oct-29 23:29N 01°11' E 103°42'0 0.0
2017-Oct-29 22:59N 01°11' E 103°42'0 0.1
2017-Oct-29 22:29N 01°11' E 103°42'0 0.0
2017-Oct-29 21:59N 01°11' E 103°42'0 0.1
2017-Oct-29 21:26N 01°11' E 103°42'0 0.2
2017-Oct-29 20:59N 01°11' E 103°42'0 0.2
2017-Oct-29 20:29N 01°11' E 103°42'0 0.0
2017-Oct-29 19:56N 01°11' E 103°42'0 0.1
2017-Oct-29 19:29N 01°11' E 103°42'0 0.0
2017-Oct-29 18:38N 01°11' E 103°42'0 0.0
2017-Oct-29 18:29N 01°11' E 103°42'0 0.0
2017-Oct-29 17:56N 01°11' E 103°42'0 0.0
2017-Oct-29 17:29N 01°11' E 103°42'0 0.1
2017-Oct-29 16:59N 01°11' E 103°42'0 0.1
2017-Oct-29 16:23N 01°11' E 103°42'0 0.1
2017-Oct-29 15:59N 01°11' E 103°42'0 0.1
2017-Oct-29 15:29N 01°11' E 103°42'0 0.0
2017-Oct-29 14:56N 01°11' E 103°42'0 0.1
2017-Oct-29 14:29N 01°11' E 103°42'0 0.0
2017-Oct-29 13:56N 01°11' E 103°42'0 0.1
2017-Oct-29 13:29N 01°11' E 103°42'0 0.1
2017-Oct-29 12:53N 01°11' E 103°42'0 0.1
2017-Oct-29 12:23N 01°11' E 103°42'0 0.1
2017-Oct-29 12:00N 01°11' E 103°42'0 0.1
2017-Oct-29 11:28N 01°11' E 103°42'0 0.3
2017-Oct-29 10:58N 01°11' E 103°42'0 0.2
2017-Oct-29 10:30N 01°11' E 103°42'1 2.0
2017-Oct-29 10:00N 01°11' E 103°41'4 7.5
2017-Oct-29 09:30N 01°12' E 103°37'3 6.0
2017-Oct-29 09:00N 01°12' E 103°34'4 6.9
2017-Oct-29 08:30N 01°11' E 103°31'5 8.7
2017-Oct-29 07:59N 01°11' E 103°27'2 3.9
2017-Oct-29 07:30N 01°12' E 103°25'2 3.6
2017-Oct-29 06:59N 01°13' E 103°23'3 4.5
2017-Oct-29 06:23N 01°15' E 103°21'2 4.8
2017-Oct-29 05:55N 01°16' E 103°20'  

Dump ship's entire track history